sensor_id;sensor_type;location;lat;lon;timestamp;pressure;altitude;pressure_sealevel;temperature;humidity
23016;BME280;11674;52.428;13.584;2022-10-26T00:03:17;101549.59;;;11.46;81.28
23016;BME280;11674;52.428;13.584;2022-10-26T00:08:24;101542.66;;;11.43;81.30
23016;BME280;11674;52.428;13.584;2022-10-26T00:13:32;101538.78;;;11.39;81.08
23016;BME280;11674;52.428;13.584;2022-10-26T00:18:39;101541.00;;;11.37;81.02
23016;BME280;11674;52.428;13.584;2022-10-26T00:23:45;101544.34;;;11.34;81.25
23016;BME280;11674;52.428;13.584;2022-10-26T00:28:54;101549.63;;;11.31;81.09
23016;BME280;11674;52.428;13.584;2022-10-26T00:34:10;101555.44;;;11.29;81.17
23016;BME280;11674;52.428;13.584;2022-10-26T00:39:17;101569.06;;;11.26;81.32
23016;BME280;11674;52.428;13.584;2022-10-26T00:49:51;101563.19;;;11.22;81.34
23016;BME280;11674;52.428;13.584;2022-10-26T00:55:00;101562.63;;;11.20;81.17
23016;BME280;11674;52.428;13.584;2022-10-26T01:00:07;101567.91;;;11.17;81.06
23016;BME280;11674;52.428;13.584;2022-10-26T01:05:15;101555.69;;;11.13;81.24
23016;BME280;11674;52.428;13.584;2022-10-26T01:10:24;101550.69;;;11.10;81.08
23016;BME280;11674;52.428;13.584;2022-10-26T01:26:36;101548.38;;;10.82;81.25
23016;BME280;11674;52.428;13.584;2022-10-26T01:31:59;101555.31;;;10.79;81.10
23016;BME280;11674;52.428;13.584;2022-10-26T01:37:13;101540.59;;;10.74;81.04
23016;BME280;11674;52.428;13.584;2022-10-26T01:42:22;101540.31;;;10.70;81.02
23016;BME280;11674;52.428;13.584;2022-10-26T01:47:31;101528.94;;;10.67;80.76
23016;BME280;11674;52.428;13.584;2022-10-26T01:52:39;101527.22;;;10.56;80.83
23016;BME280;11674;52.428;13.584;2022-10-26T01:57:49;101540.50;;;10.49;80.84
23016;BME280;11674;52.428;13.584;2022-10-26T02:03:25;101532.41;;;10.42;81.06
23016;BME280;11674;52.428;13.584;2022-10-26T02:08:57;101536.28;;;10.41;80.89
23016;BME280;11674;52.428;13.584;2022-10-26T02:14:30;101536.28;;;10.41;81.06
23016;BME280;11674;52.428;13.584;2022-10-26T02:19:48;101527.41;;;10.39;80.91
23016;BME280;11674;52.428;13.584;2022-10-26T02:24:58;101528.25;;;10.40;81.00
23016;BME280;11674;52.428;13.584;2022-10-26T02:30:07;101529.94;;;10.41;80.88
23016;BME280;11674;52.428;13.584;2022-10-26T02:35:16;101520.50;;;10.42;81.23
23016;BME280;11674;52.428;13.584;2022-10-26T02:40:27;101519.66;;;10.41;81.09
23016;BME280;11674;52.428;13.584;2022-10-26T02:45:43;101527.97;;;10.41;81.07
23016;BME280;11674;52.428;13.584;2022-10-26T02:51:13;101542.94;;;10.40;81.11
23016;BME280;11674;52.428;13.584;2022-10-26T02:56:29;101539.63;;;10.38;80.95
23016;BME280;11674;52.428;13.584;2022-10-26T03:01:39;101536.25;;;10.36;81.17
23016;BME280;11674;52.428;13.584;2022-10-26T03:06:53;101534.59;;;10.35;81.05
23016;BME280;11674;52.428;13.584;2022-10-26T03:12:00;101545.16;;;10.33;81.04
23016;BME280;11674;52.428;13.584;2022-10-26T03:17:14;101547.66;;;10.35;81.19
23016;BME280;11674;52.428;13.584;2022-10-26T03:22:22;101537.63;;;10.34;81.18
23016;BME280;11674;52.428;13.584;2022-10-26T03:27:28;101540.41;;;10.34;81.17
23016;BME280;11674;52.428;13.584;2022-10-26T03:32:37;101544.28;;;10.33;81.05
23016;BME280;11674;52.428;13.584;2022-10-26T03:37:44;101542.91;;;10.30;80.96
23016;BME280;11674;52.428;13.584;2022-10-26T03:42:51;101550.66;;;10.28;81.11
23016;BME280;11674;52.428;13.584;2022-10-26T03:47:57;101544.84;;;10.30;81.13
23016;BME280;11674;52.428;13.584;2022-10-26T03:53:05;101545.16;;;10.33;81.23
23016;BME280;11674;52.428;13.584;2022-10-26T03:58:12;101535.75;;;10.39;81.48
23016;BME280;11674;52.428;13.584;2022-10-26T04:03:19;101547.13;;;10.43;81.44
23016;BME280;11674;52.428;13.584;2022-10-26T04:08:27;101550.44;;;10.45;81.28
23016;BME280;11674;52.428;13.584;2022-10-26T04:13:34;101544.63;;;10.46;81.43
23016;BME280;11674;52.428;13.584;2022-10-26T04:18:40;101550.78;;;10.48;81.67
23016;BME280;11674;52.428;13.584;2022-10-26T04:23:48;101550.47;;;10.50;81.40
23016;BME280;11674;52.428;13.584;2022-10-26T04:28:54;101552.69;;;10.48;81.44
23016;BME280;11674;52.428;13.584;2022-10-26T04:34:02;101545.75;;;10.45;81.59
23016;BME280;11674;52.428;13.584;2022-10-26T04:39:08;101547.13;;;10.43;81.48
23016;BME280;11674;52.428;13.584;2022-10-26T04:44:16;101557.66;;;10.41;81.47
23016;BME280;11674;52.428;13.584;2022-10-26T04:49:23;101556.53;;;10.37;81.60
23016;BME280;11674;52.428;13.584;2022-10-26T04:54:30;101560.94;;;10.33;81.51
23016;BME280;11674;52.428;13.584;2022-10-26T04:59:36;101560.84;;;10.18;81.07
23016;BME280;11674;52.428;13.584;2022-10-26T05:04:43;101554.88;;;9.99;81.05
23016;BME280;11674;52.428;13.584;2022-10-26T05:09:51;101551.22;;;9.89;81.09
23016;BME280;11674;52.428;13.584;2022-10-26T05:14:58;101551.97;;;9.79;81.27
23016;BME280;11674;52.428;13.584;2022-10-26T05:20:05;101553.31;;;9.72;81.19
23016;BME280;11674;52.428;13.584;2022-10-26T05:25:12;101556.03;;;9.67;81.22
23016;BME280;11674;52.428;13.584;2022-10-26T05:30:18;101560.72;;;9.66;81.22
23016;BME280;11674;52.428;13.584;2022-10-26T05:35:26;101566.00;;;9.68;81.20
23016;BME280;11674;52.428;13.584;2022-10-26T05:40:33;101561.88;;;9.70;81.24
23016;BME280;11674;52.428;13.584;2022-10-26T05:45:39;101562.72;;;9.71;80.98
23016;BME280;11674;52.428;13.584;2022-10-26T05:50:47;101551.88;;;9.64;80.88
23016;BME280;11674;52.428;13.584;2022-10-26T05:55:55;101551.53;;;9.56;80.94
23016;BME280;11674;52.428;13.584;2022-10-26T06:01:12;101561.44;;;9.52;80.92
23016;BME280;11674;52.428;13.584;2022-10-26T06:06:33;101565.78;;;9.43;81.14
23016;BME280;11674;52.428;13.584;2022-10-26T06:11:43;101571.63;;;9.41;81.11
23016;BME280;11674;52.428;13.584;2022-10-26T06:22:42;101578.88;;;9.47;81.41
23016;BME280;11674;52.428;13.584;2022-10-26T06:33:17;101580.38;;;9.60;81.57
23016;BME280;11674;52.428;13.584;2022-10-26T06:38:26;101588.16;;;9.68;81.55
23016;BME280;11674;52.428;13.584;2022-10-26T06:43:34;101591.84;;;9.78;81.85
23016;BME280;11674;52.428;13.584;2022-10-26T06:49:01;101586.38;;;9.88;81.72
23016;BME280;11674;52.428;13.584;2022-10-26T06:54:17;101603.09;;;9.98;81.82
23016;BME280;11674;52.428;13.584;2022-10-26T07:04:44;101598.03;;;10.22;81.92
23016;BME280;11674;52.428;13.584;2022-10-26T07:09:52;101598.09;;;10.32;81.89
23016;BME280;11674;52.428;13.584;2022-10-26T07:14:59;101604.53;;;10.42;82.06
23016;BME280;11674;52.428;13.584;2022-10-26T07:20:06;101603.22;;;10.55;82.27
23016;BME280;11674;52.428;13.584;2022-10-26T07:25:13;101603.28;;;10.70;82.45
23016;BME280;11674;52.428;13.584;2022-10-26T07:30:20;101605.59;;;10.83;82.45
23016;BME280;11674;52.428;13.584;2022-10-26T07:35:27;101600.34;;;10.96;82.64
23016;BME280;11674;52.428;13.584;2022-10-26T07:40:35;101599.56;;;11.11;82.87
23016;BME280;11674;52.428;13.584;2022-10-26T07:45:42;101594.31;;;11.24;82.82
23016;BME280;11674;52.428;13.584;2022-10-26T07:50:49;101593.78;;;11.37;82.84
23016;BME280;11674;52.428;13.584;2022-10-26T07:55:56;101602.13;;;11.52;83.03
23016;BME280;11674;52.428;13.584;2022-10-26T08:01:11;101593.84;;;11.67;83.13
23016;BME280;11674;52.428;13.584;2022-10-26T08:06:20;101600.81;;;11.80;82.90
23016;BME280;11674;52.428;13.584;2022-10-26T08:11:27;101598.84;;;11.90;83.07
23016;BME280;11674;52.428;13.584;2022-10-26T08:16:34;101604.41;;;12.05;83.26
23016;BME280;11674;52.428;13.584;2022-10-26T08:21:41;101606.59;;;12.18;83.28
23016;BME280;11674;52.428;13.584;2022-10-26T08:26:48;101598.22;;;12.33;83.42
23016;BME280;11674;52.428;13.584;2022-10-26T08:31:55;101604.03;;;12.47;83.31
23016;BME280;11674;52.428;13.584;2022-10-26T08:37:02;101595.66;;;12.62;83.64
23016;BME280;11674;52.428;13.584;2022-10-26T08:42:23;101598.63;;;12.80;83.73
23016;BME280;11674;52.428;13.584;2022-10-26T08:47:41;101602.75;;;13.03;83.70
23016;BME280;11674;52.428;13.584;2022-10-26T08:53:01;101603.22;;;13.20;83.69
23016;BME280;11674;52.428;13.584;2022-10-26T08:58:14;101601.47;;;13.34;83.76
23016;BME280;11674;52.428;13.584;2022-10-26T09:03:23;101598.28;;;13.50;84.06
23016;BME280;11674;52.428;13.584;2022-10-26T09:08:41;101603.44;;;13.72;84.29
23016;BME280;11674;52.428;13.584;2022-10-26T09:24:33;101607.41;;;14.28;84.34
23016;BME280;11674;52.428;13.584;2022-10-26T09:29:44;101617.25;;;14.49;84.26
23016;BME280;11674;52.428;13.584;2022-10-26T09:34:57;101606.13;;;14.67;84.35
23016;BME280;11674;52.428;13.584;2022-10-26T09:40:22;101603.41;;;14.86;84.15
23016;BME280;11674;52.428;13.584;2022-10-26T09:45:31;101605.25;;;15.14;84.56
23016;BME280;11674;52.428;13.584;2022-10-26T09:50:41;101611.06;;;15.41;84.31
23016;BME280;11674;52.428;13.584;2022-10-26T09:55:58;101600.72;;;15.60;84.44
23016;BME280;11674;52.428;13.584;2022-10-26T10:01:40;101608.50;;;15.81;84.56
23016;BME280;11674;52.428;13.584;2022-10-26T10:06:48;101612.38;;;15.99;84.22
23016;BME280;11674;52.428;13.584;2022-10-26T10:11:56;101616.19;;;16.21;84.57
23016;BME280;11674;52.428;13.584;2022-10-26T10:17:06;101614.06;;;16.32;84.48
23016;BME280;11674;52.428;13.584;2022-10-26T10:27:23;101610.50;;;16.72;84.41
23016;BME280;11674;52.428;13.584;2022-10-26T10:32:31;101602.84;;;16.91;84.65
23016;BME280;11674;52.428;13.584;2022-10-26T10:37:40;101597.63;;;17.11;84.29
23016;BME280;11674;52.428;13.584;2022-10-26T10:42:47;101601.09;;;17.30;84.29
23016;BME280;11674;52.428;13.584;2022-10-26T10:48:12;101592.91;;;17.47;84.38
23016;BME280;11674;52.428;13.584;2022-10-26T10:58:39;101606.38;;;17.81;84.17
23016;BME280;11674;52.428;13.584;2022-10-26T11:09:15;101602.31;;;18.09;83.75
23016;BME280;11674;52.428;13.584;2022-10-26T11:14:28;101595.59;;;18.18;83.97
23016;BME280;11674;52.428;13.584;2022-10-26T11:19:46;101598.47;;;18.27;83.68
23016;BME280;11674;52.428;13.584;2022-10-26T11:35:18;101591.13;;;18.70;84.04
23016;BME280;11674;52.428;13.584;2022-10-26T11:40:54;101593.19;;;18.86;83.55
23016;BME280;11674;52.428;13.584;2022-10-26T11:46:23;101597.38;;;19.06;83.92
23016;BME280;11674;52.428;13.584;2022-10-26T11:51:37;101582.06;;;19.29;83.81
23016;BME280;11674;52.428;13.584;2022-10-26T11:56:47;101568.00;;;19.54;83.19
23016;BME280;11674;52.428;13.584;2022-10-26T12:02:11;101579.44;;;19.75;83.29
23016;BME280;11674;52.428;13.584;2022-10-26T12:07:29;101570.97;;;20.00;83.20
23016;BME280;11674;52.428;13.584;2022-10-26T12:12:50;101561.63;;;20.34;83.15
23016;BME280;11674;52.428;13.584;2022-10-26T12:18:16;101552.22;;;20.67;82.64
23016;BME280;11674;52.428;13.584;2022-10-26T12:23:26;101557.06;;;22.07;79.50
23016;BME280;11674;52.428;13.584;2022-10-26T12:33:49;101530.66;;;26.48;73.11
23016;BME280;11674;52.428;13.584;2022-10-26T12:38:56;101523.16;;;27.93;72.96
23016;BME280;11674;52.428;13.584;2022-10-26T12:44:31;101513.75;;;29.09;68.61
23016;BME280;11674;52.428;13.584;2022-10-26T12:55:30;101510.28;;;30.18;66.35
23016;BME280;11674;52.428;13.584;2022-10-26T13:00:48;101510.31;;;30.50;66.09
23016;BME280;11674;52.428;13.584;2022-10-26T13:11:46;101509.59;;;28.56;67.18
23016;BME280;11674;52.428;13.584;2022-10-26T13:16:55;101517.25;;;28.08;67.82
23016;BME280;11674;52.428;13.584;2022-10-26T13:22:02;101523.53;;;27.62;67.77
23016;BME280;11674;52.428;13.584;2022-10-26T13:32:16;101512.94;;;26.58;70.10
23016;BME280;11674;52.428;13.584;2022-10-26T13:37:25;101509.50;;;26.49;70.09
23016;BME280;11674;52.428;13.584;2022-10-26T13:42:43;101508.91;;;26.18;70.32
23016;BME280;11674;52.428;13.584;2022-10-26T13:47:56;101513.19;;;25.70;71.48
23016;BME280;11674;52.428;13.584;2022-10-26T13:53:43;101526.28;;;25.06;72.69
23016;BME280;11674;52.428;13.584;2022-10-26T13:58:56;101538.88;;;24.74;73.86
23016;BME280;11674;52.428;13.584;2022-10-26T14:04:36;101539.44;;;24.21;74.14
23016;BME280;11674;52.428;13.584;2022-10-26T14:09:43;101540.69;;;23.80;75.94
23016;BME280;11674;52.428;13.584;2022-10-26T14:15:02;101537.59;;;23.58;75.58
23016;BME280;11674;52.428;13.584;2022-10-26T14:20:17;101535.97;;;23.45;76.21
23016;BME280;11674;52.428;13.584;2022-10-26T14:25:28;101540.84;;;22.96;75.52
23016;BME280;11674;52.428;13.584;2022-10-26T14:30:36;101553.69;;;22.70;75.97
23016;BME280;11674;52.428;13.584;2022-10-26T14:35:43;101549.34;;;22.28;75.55
23016;BME280;11674;52.428;13.584;2022-10-26T14:40:50;101552.13;;;21.83;75.26
23016;BME280;11674;52.428;13.584;2022-10-26T14:45:57;101555.69;;;21.51;75.24
23016;BME280;11674;52.428;13.584;2022-10-26T14:51:16;101563.44;;;21.13;75.03
23016;BME280;11674;52.428;13.584;2022-10-26T15:01:48;101579.44;;;20.63;75.19
23016;BME280;11674;52.428;13.584;2022-10-26T15:07:21;101580.69;;;20.37;75.51
23016;BME280;11674;52.428;13.584;2022-10-26T15:12:31;101583.91;;;20.10;75.32
23016;BME280;11674;52.428;13.584;2022-10-26T15:17:47;101576.59;;;19.92;75.52
23016;BME280;11674;52.428;13.584;2022-10-26T15:22:57;101583.06;;;19.75;75.46
23016;BME280;11674;52.428;13.584;2022-10-26T15:28:22;101585.09;;;19.58;75.67
23016;BME280;11674;52.428;13.584;2022-10-26T15:33:30;101593.00;;;19.39;75.60
23016;BME280;11674;52.428;13.584;2022-10-26T15:38:37;101592.44;;;19.20;76.04
23016;BME280;11674;52.428;13.584;2022-10-26T15:43:48;101585.78;;;18.99;76.05
23016;BME280;11674;52.428;13.584;2022-10-26T15:48:57;101594.13;;;18.82;76.43
23016;BME280;11674;52.428;13.584;2022-10-26T15:54:05;101603.03;;;18.67;76.20
23016;BME280;11674;52.428;13.584;2022-10-26T15:59:14;101605.72;;;18.50;76.63
23016;BME280;11674;52.428;13.584;2022-10-26T16:04:21;101618.63;;;18.29;76.60
23016;BME280;11674;52.428;13.584;2022-10-26T16:09:28;101622.78;;;18.09;76.79
23016;BME280;11674;52.428;13.584;2022-10-26T16:14:35;101633.41;;;17.90;76.64
23016;BME280;11674;52.428;13.584;2022-10-26T16:19:42;101638.03;;;17.73;76.73
23016;BME280;11674;52.428;13.584;2022-10-26T16:24:49;101626.97;;;17.54;76.75
23016;BME280;11674;52.428;13.584;2022-10-26T16:29:56;101631.75;;;17.40;76.49
23016;BME280;11674;52.428;13.584;2022-10-26T16:35:03;101628.13;;;17.26;76.77
23016;BME280;11674;52.428;13.584;2022-10-26T16:40:10;101632.31;;;17.15;76.96
23016;BME280;11674;52.428;13.584;2022-10-26T16:45:17;101641.75;;;17.06;77.38
23016;BME280;11674;52.428;13.584;2022-10-26T16:50:24;101633.44;;;17.01;77.24
23016;BME280;11674;52.428;13.584;2022-10-26T16:55:31;101631.28;;;16.98;77.48
23016;BME280;11674;52.428;13.584;2022-10-26T17:00:38;101637.81;;;16.93;77.74
23016;BME280;11674;52.428;13.584;2022-10-26T17:05:45;101654.94;;;16.92;77.59
23016;BME280;11674;52.428;13.584;2022-10-26T17:10:53;101661.16;;;16.89;77.50
23016;BME280;11674;52.428;13.584;2022-10-26T17:16:05;101657.09;;;16.81;77.87
23016;BME280;11674;52.428;13.584;2022-10-26T17:21:14;101664.50;;;16.77;78.02
23016;BME280;11674;52.428;13.584;2022-10-26T17:26:21;101676.31;;;16.74;77.86
23016;BME280;11674;52.428;13.584;2022-10-26T17:31:28;101684.50;;;16.71;77.84
23016;BME280;11674;52.428;13.584;2022-10-26T17:36:35;101691.56;;;16.68;77.88
23016;BME280;11674;52.428;13.584;2022-10-26T17:41:42;101691.88;;;16.67;77.96
23016;BME280;11674;52.428;13.584;2022-10-26T17:46:49;101693.00;;;16.66;78.16
23016;BME280;11674;52.428;13.584;2022-10-26T17:52:03;101693.94;;;16.61;78.16
23016;BME280;11674;52.428;13.584;2022-10-26T17:57:10;101696.84;;;16.56;78.33
23016;BME280;11674;52.428;13.584;2022-10-26T18:02:17;101692.44;;;16.50;78.28
23016;BME280;11674;52.428;13.584;2022-10-26T18:07:24;101707.59;;;16.49;78.15
23016;BME280;11674;52.428;13.584;2022-10-26T18:12:31;101709.56;;;16.49;78.37
23016;BME280;11674;52.428;13.584;2022-10-26T18:17:38;101713.50;;;16.48;78.17
23016;BME280;11674;52.428;13.584;2022-10-26T18:22:45;101728.97;;;16.45;78.34
23016;BME280;11674;52.428;13.584;2022-10-26T18:27:52;101736.66;;;16.35;78.46
23016;BME280;11674;52.428;13.584;2022-10-26T18:32:59;101743.47;;;16.29;78.67
23016;BME280;11674;52.428;13.584;2022-10-26T18:38:06;101744.00;;;16.31;78.71
23016;BME280;11674;52.428;13.584;2022-10-26T18:43:13;101749.00;;;16.34;78.99
23016;BME280;11674;52.428;13.584;2022-10-26T18:48:20;101757.91;;;16.36;78.88
23016;BME280;11674;52.428;13.584;2022-10-26T18:53:27;101755.38;;;16.39;78.96
23016;BME280;11674;52.428;13.584;2022-10-26T18:58:39;101760.06;;;16.44;78.82
23016;BME280;11674;52.428;13.584;2022-10-26T19:03:47;101768.41;;;16.49;78.70
23016;BME280;11674;52.428;13.584;2022-10-26T19:08:55;101768.63;;;16.52;79.14
23016;BME280;11674;52.428;13.584;2022-10-26T19:14:02;101773.28;;;16.57;79.16
23016;BME280;11674;52.428;13.584;2022-10-26T19:19:09;101773.28;;;16.57;78.63
23016;BME280;11674;52.428;13.584;2022-10-26T19:24:19;101775.28;;;16.56;78.78
23016;BME280;11674;52.428;13.584;2022-10-26T19:29:26;101777.53;;;16.54;78.95
23016;BME280;11674;52.428;13.584;2022-10-26T19:34:33;101787.69;;;16.50;78.61
23016;BME280;11674;52.428;13.584;2022-10-26T19:39:40;101789.47;;;16.46;78.90
23016;BME280;11674;52.428;13.584;2022-10-26T19:44:47;101795.44;;;16.40;78.78
23016;BME280;11674;52.428;13.584;2022-10-26T19:49:54;101801.69;;;16.32;78.93
23016;BME280;11674;52.428;13.584;2022-10-26T19:55:01;101802.88;;;16.26;78.76
23016;BME280;11674;52.428;13.584;2022-10-26T20:00:08;101817.28;;;16.19;78.53
23016;BME280;11674;52.428;13.584;2022-10-26T20:05:16;101821.66;;;16.07;78.40
23016;BME280;11674;52.428;13.584;2022-10-26T20:10:23;101830.50;;;15.95;78.33
23016;BME280;11674;52.428;13.584;2022-10-26T20:15:30;101840.16;;;15.84;78.47
23016;BME280;11674;52.428;13.584;2022-10-26T20:20:37;101838.31;;;15.75;78.08
23016;BME280;11674;52.428;13.584;2022-10-26T20:25:46;101833.97;;;15.64;78.20
23016;BME280;11674;52.428;13.584;2022-10-26T20:30:53;101844.16;;;15.55;78.11
23016;BME280;11674;52.428;13.584;2022-10-26T20:36:00;101843.13;;;15.46;78.15
23016;BME280;11674;52.428;13.584;2022-10-26T20:41:11;101847.16;;;15.35;78.39
23016;BME280;11674;52.428;13.584;2022-10-26T20:46:25;101859.53;;;15.24;78.13
23016;BME280;11674;52.428;13.584;2022-10-26T20:51:41;101860.81;;;15.08;78.22
23016;BME280;11674;52.428;13.584;2022-10-26T20:56:48;101874.34;;;14.96;78.28
23016;BME280;11674;52.428;13.584;2022-10-26T21:01:56;101857.38;;;14.87;78.22
23016;BME280;11674;52.428;13.584;2022-10-26T21:07:03;101866.66;;;14.83;78.33
23016;BME280;11674;52.428;13.584;2022-10-26T21:12:10;101873.94;;;14.79;78.48
23016;BME280;11674;52.428;13.584;2022-10-26T21:17:17;101879.28;;;14.75;78.60
23016;BME280;11674;52.428;13.584;2022-10-26T21:22:24;101894.66;;;14.73;78.41
23016;BME280;11674;52.428;13.584;2022-10-26T21:27:31;101892.44;;;14.70;78.53
23016;BME280;11674;52.428;13.584;2022-10-26T21:32:38;101893.84;;;14.67;78.54
23016;BME280;11674;52.428;13.584;2022-10-26T21:37:45;101901.13;;;14.63;78.60
23016;BME280;11674;52.428;13.584;2022-10-26T21:42:52;101905.63;;;14.59;78.60
23016;BME280;11674;52.428;13.584;2022-10-26T21:47:59;101909.28;;;14.55;78.41
23016;BME280;11674;52.428;13.584;2022-10-26T21:53:06;101910.16;;;14.50;78.22
23016;BME280;11674;52.428;13.584;2022-10-26T21:58:15;101911.03;;;14.46;78.70
23016;BME280;11674;52.428;13.584;2022-10-26T22:03:22;101910.22;;;14.40;78.57
23016;BME280;11674;52.428;13.584;2022-10-26T22:08:29;101901.59;;;14.37;78.44
23016;BME280;11674;52.428;13.584;2022-10-26T22:13:36;101915.56;;;14.32;78.58
23016;BME280;11674;52.428;13.584;2022-10-26T22:18:44;101925.63;;;14.28;78.38
23016;BME280;11674;52.428;13.584;2022-10-26T22:23:51;101913.38;;;14.24;78.80
23016;BME280;11674;52.428;13.584;2022-10-26T22:28:58;101923.44;;;14.20;78.47
23016;BME280;11674;52.428;13.584;2022-10-26T22:34:07;101916.19;;;14.14;78.33
23016;BME280;11674;52.428;13.584;2022-10-26T22:39:18;101911.44;;;14.09;78.69
23016;BME280;11674;52.428;13.584;2022-10-26T22:44:25;101920.97;;;14.03;78.54
23016;BME280;11674;52.428;13.584;2022-10-26T22:49:32;101935.78;;;13.99;78.57
23016;BME280;11674;52.428;13.584;2022-10-26T22:54:39;101933.53;;;13.96;78.65
23016;BME280;11674;52.428;13.584;2022-10-26T22:59:46;101934.94;;;13.93;78.80
23016;BME280;11674;52.428;13.584;2022-10-26T23:04:53;101945.84;;;13.90;78.79
23016;BME280;11674;52.428;13.584;2022-10-26T23:10:01;101939.47;;;13.84;78.46
23016;BME280;11674;52.428;13.584;2022-10-26T23:15:08;101946.72;;;13.80;78.35
23016;BME280;11674;52.428;13.584;2022-10-26T23:20:15;101959.00;;;13.74;78.66
23016;BME280;11674;52.428;13.584;2022-10-26T23:25:22;101967.91;;;13.71;78.87
23016;BME280;11674;52.428;13.584;2022-10-26T23:30:29;101974.91;;;13.69;78.72
23016;BME280;11674;52.428;13.584;2022-10-26T23:35:36;101977.13;;;13.67;78.59
23016;BME280;11674;52.428;13.584;2022-10-26T23:40:50;101971.00;;;13.65;78.77
23016;BME280;11674;52.428;13.584;2022-10-26T23:45:57;101981.31;;;13.64;79.01
23016;BME280;11674;52.428;13.584;2022-10-26T23:51:04;101978.53;;;13.64;79.00
23016;BME280;11674;52.428;13.584;2022-10-26T23:56:11;101984.38;;;13.63;78.69
